sensor_id;sensor_type;location;lat;lon;timestamp;pressure;altitude;pressure_sealevel;temperature;humidity
26192;BME280;13935;55.672;37.764;2023-05-25T00:01:07;100119.00;;;16.28;100.00
26192;BME280;13935;55.672;37.764;2023-05-25T00:22:48;100100.72;;;16.24;100.00
26192;BME280;13935;55.672;37.764;2023-05-25T00:25:37;100105.81;;;15.99;100.00
26192;BME280;13935;55.672;37.764;2023-05-25T00:27:52;100097.75;;;16.04;100.00
26192;BME280;13935;55.672;37.764;2023-05-25T00:30:32;100096.28;;;15.96;100.00
26192;BME280;13935;55.672;37.764;2023-05-25T00:32:42;100099.38;;;16.02;100.00
26192;BME280;13935;55.672;37.764;2023-05-25T00:35:55;100092.56;;;16.06;100.00
26192;BME280;13935;55.672;37.764;2023-05-25T00:38:25;100087.75;;;16.07;100.00
26192;BME280;13935;55.672;37.764;2023-05-25T00:40:07;100089.03;;;16.02;100.00
26192;BME280;13935;55.672;37.764;2023-05-25T00:42:51;100093.75;;;16.05;100.00
26192;BME280;13935;55.672;37.764;2023-05-25T00:45:39;100091.78;;;16.06;100.00
26192;BME280;13935;55.672;37.764;2023-05-25T00:56:01;100074.72;;;15.97;100.00
26192;BME280;13935;55.672;37.764;2023-05-25T00:58:42;100078.03;;;15.88;100.00
26192;BME280;13935;55.672;37.764;2023-05-25T01:09:57;100062.09;;;15.85;100.00
26192;BME280;13935;55.672;37.764;2023-05-25T01:26:49;100060.03;;;15.93;100.00
26192;BME280;13935;55.672;37.764;2023-05-25T01:32:37;100069.88;;;16.01;100.00
26192;BME280;13935;55.672;37.764;2023-05-25T01:38:11;100065.09;;;16.01;100.00
26192;BME280;13935;55.672;37.764;2023-05-25T01:40:20;100063.13;;;15.98;100.00
26192;BME280;13935;55.672;37.764;2023-05-25T01:44:53;100064.72;;;15.99;100.00
26192;BME280;13935;55.672;37.764;2023-05-25T01:53:59;100073.66;;;16.17;100.00
26192;BME280;13935;55.672;37.764;2023-05-25T02:08:27;100073.47;;;16.35;100.00
26192;BME280;13935;55.672;37.764;2023-05-25T02:10:35;100073.66;;;16.47;100.00
26192;BME280;13935;55.672;37.764;2023-05-25T02:19:49;100085.63;;;16.74;100.00
26192;BME280;13935;55.672;37.764;2023-05-25T02:26:47;100088.66;;;16.86;100.00
26192;BME280;13935;55.672;37.764;2023-05-25T02:29:30;100087.44;;;17.10;100.00
26192;BME280;13935;55.672;37.764;2023-05-25T02:32:09;100084.94;;;17.15;100.00
26192;BME280;13935;55.672;37.764;2023-05-25T02:33:32;100093.03;;;17.10;100.00
26192;BME280;13935;55.672;37.764;2023-05-25T02:34:34;100084.94;;;17.15;100.00
26192;BME280;13935;55.672;37.764;2023-05-25T02:35:37;100084.59;;;17.36;100.00
26192;BME280;13935;55.672;37.764;2023-05-25T02:39:58;100078.75;;;17.50;100.00
26192;BME280;13935;55.672;37.764;2023-05-25T02:41:01;100080.06;;;17.65;100.00
26192;BME280;13935;55.672;37.764;2023-05-25T02:42:18;100080.94;;;17.62;100.00
26192;BME280;13935;55.672;37.764;2023-05-25T02:43:23;100085.66;;;17.65;100.00
26192;BME280;13935;55.672;37.764;2023-05-25T02:44:25;100082.44;;;17.67;100.00
26192;BME280;13935;55.672;37.764;2023-05-25T02:45:28;100086.19;;;17.80;100.00
26192;BME280;13935;55.672;37.764;2023-05-25T02:46:32;100080.53;;;18.02;100.00
26192;BME280;13935;55.672;37.764;2023-05-25T02:47:36;100082.88;;;18.04;100.00
26192;BME280;13935;55.672;37.764;2023-05-25T02:48:38;100086.38;;;18.08;100.00
26192;BME280;13935;55.672;37.764;2023-05-25T02:49:41;100086.25;;;18.15;100.00
26192;BME280;13935;55.672;37.764;2023-05-25T02:50:43;100085.53;;;18.30;100.00
26192;BME280;13935;55.672;37.764;2023-05-25T02:51:49;100085.44;;;18.53;100.00
26192;BME280;13935;55.672;37.764;2023-05-25T02:52:51;100075.31;;;18.75;100.00
26192;BME280;13935;55.672;37.764;2023-05-25T02:53:53;100078.75;;;18.98;100.00
26192;BME280;13935;55.672;37.764;2023-05-25T02:54:55;100075.31;;;19.07;100.00
26192;BME280;13935;55.672;37.764;2023-05-25T02:56:04;100077.34;;;19.06;100.00
26192;BME280;13935;55.672;37.764;2023-05-25T02:57:08;100079.78;;;19.04;100.00
26192;BME280;13935;55.672;37.764;2023-05-25T02:58:10;100072.09;;;19.08;100.00
26192;BME280;13935;55.672;37.764;2023-05-25T02:59:28;100085.75;;;19.06;100.00
26192;BME280;13935;55.672;37.764;2023-05-25T03:00:31;100086.78;;;18.96;100.00
26192;BME280;13935;55.672;37.764;2023-05-25T03:01:34;100084.06;;;18.93;100.00
26192;BME280;13935;55.672;37.764;2023-05-25T03:02:36;100081.09;;;19.00;100.00
26192;BME280;13935;55.672;37.764;2023-05-25T03:03:38;100087.59;;;18.97;100.00
26192;BME280;13935;55.672;37.764;2023-05-25T03:04:41;100086.97;;;18.89;100.00
26192;BME280;13935;55.672;37.764;2023-05-25T03:05:43;100085.91;;;18.83;100.00
26192;BME280;13935;55.672;37.764;2023-05-25T03:06:47;100084.84;;;18.77;100.00
26192;BME280;13935;55.672;37.764;2023-05-25T03:07:52;100091.19;;;18.81;100.00
26192;BME280;13935;55.672;37.764;2023-05-25T03:08:55;100084.31;;;18.82;100.00
26192;BME280;13935;55.672;37.764;2023-05-25T03:09:58;100094.53;;;18.92;100.00
26192;BME280;13935;55.672;37.764;2023-05-25T03:11:00;100092.16;;;19.07;100.00
26192;BME280;13935;55.672;37.764;2023-05-25T03:12:02;100090.34;;;19.16;100.00
26192;BME280;13935;55.672;37.764;2023-05-25T03:13:04;100082.44;;;19.43;100.00
26192;BME280;13935;55.672;37.764;2023-05-25T03:14:09;100088.16;;;19.68;100.00
26192;BME280;13935;55.672;37.764;2023-05-25T03:15:12;100079.13;;;19.89;100.00
26192;BME280;13935;55.672;37.764;2023-05-25T03:16:14;100078.84;;;20.27;100.00
26192;BME280;13935;55.672;37.764;2023-05-25T03:17:16;100071.00;;;20.47;100.00
26192;BME280;13935;55.672;37.764;2023-05-25T03:18:18;100067.94;;;20.42;100.00
26192;BME280;13935;55.672;37.764;2023-05-25T03:19:21;100067.75;;;20.74;100.00
26192;BME280;13935;55.672;37.764;2023-05-25T03:20:23;100068.78;;;20.80;100.00
26192;BME280;13935;55.672;37.764;2023-05-25T03:21:26;100072.81;;;20.79;100.00
26192;BME280;13935;55.672;37.764;2023-05-25T03:22:28;100068.13;;;20.76;100.00
26192;BME280;13935;55.672;37.764;2023-05-25T03:23:30;100064.25;;;20.70;100.00
26192;BME280;13935;55.672;37.764;2023-05-25T03:24:32;100072.34;;;20.68;100.00
26192;BME280;13935;55.672;37.764;2023-05-25T03:25:36;100072.84;;;20.91;100.00
26192;BME280;13935;55.672;37.764;2023-05-25T03:26:38;100077.69;;;21.49;100.00
26192;BME280;13935;55.672;37.764;2023-05-25T03:27:41;100071.63;;;21.84;100.00
26192;BME280;13935;55.672;37.764;2023-05-25T03:28:43;100069.78;;;21.90;100.00
26192;BME280;13935;55.672;37.764;2023-05-25T03:29:48;100081.06;;;22.33;100.00
26192;BME280;13935;55.672;37.764;2023-05-25T03:30:51;100072.16;;;22.65;100.00
26192;BME280;13935;55.672;37.764;2023-05-25T03:31:53;100063.69;;;22.65;100.00
26192;BME280;13935;55.672;37.764;2023-05-25T03:32:58;100069.28;;;22.86;100.00
26192;BME280;13935;55.672;37.764;2023-05-25T03:34:06;100065.97;;;22.88;100.00
26192;BME280;13935;55.672;37.764;2023-05-25T03:35:10;100064.19;;;23.11;100.00
26192;BME280;13935;55.672;37.764;2023-05-25T03:36:12;100068.34;;;23.37;100.00
26192;BME280;13935;55.672;37.764;2023-05-25T03:37:19;100063.63;;;23.43;100.00
26192;BME280;13935;55.672;37.764;2023-05-25T03:38:21;100056.66;;;23.08;100.00
26192;BME280;13935;55.672;37.764;2023-05-25T03:39:23;100055.94;;;23.35;100.00
26192;BME280;13935;55.672;37.764;2023-05-25T03:40:27;100056.44;;;24.14;100.00
26192;BME280;13935;55.672;37.764;2023-05-25T03:41:28;100049.22;;;24.13;100.00
26192;BME280;13935;55.672;37.764;2023-05-25T03:42:31;100048.53;;;24.45;100.00
26192;BME280;13935;55.672;37.764;2023-05-25T03:43:34;100062.94;;;24.64;100.00
26192;BME280;13935;55.672;37.764;2023-05-25T03:44:37;100056.03;;;24.56;100.00
26192;BME280;13935;55.672;37.764;2023-05-25T03:45:42;100060.84;;;25.38;100.00
26192;BME280;13935;55.672;37.764;2023-05-25T03:46:44;100056.81;;;25.54;100.00
26192;BME280;13935;55.672;37.764;2023-05-25T03:47:47;100054.19;;;25.65;100.00
26192;BME280;13935;55.672;37.764;2023-05-25T03:48:50;100061.38;;;25.28;100.00
26192;BME280;13935;55.672;37.764;2023-05-25T03:49:53;100061.25;;;25.46;100.00
26192;BME280;13935;55.672;37.764;2023-05-25T03:50:55;100056.16;;;25.96;100.00
26192;BME280;13935;55.672;37.764;2023-05-25T03:51:58;100059.28;;;25.61;96.54
26192;BME280;13935;55.672;37.764;2023-05-25T03:53:02;100057.53;;;25.87;94.53
26192;BME280;13935;55.672;37.764;2023-05-25T03:54:04;100051.34;;;26.40;95.35
26192;BME280;13935;55.672;37.764;2023-05-25T03:55:06;100055.13;;;26.66;90.68
26192;BME280;13935;55.672;37.764;2023-05-25T03:56:08;100052.22;;;26.46;92.58
26192;BME280;13935;55.672;37.764;2023-05-25T03:57:12;100047.97;;;26.85;91.08
26192;BME280;13935;55.672;37.764;2023-05-25T03:58:14;100042.00;;;26.68;89.56
26192;BME280;13935;55.672;37.764;2023-05-25T03:59:20;100037.59;;;26.24;90.63
26192;BME280;13935;55.672;37.764;2023-05-25T04:00:22;100040.75;;;26.55;87.54
26192;BME280;13935;55.672;37.764;2023-05-25T04:01:24;100038.19;;;26.28;87.91
26192;BME280;13935;55.672;37.764;2023-05-25T04:02:28;100038.94;;;25.86;91.15
26192;BME280;13935;55.672;37.764;2023-05-25T04:03:30;100039.75;;;26.58;89.68
26192;BME280;13935;55.672;37.764;2023-05-25T04:04:33;100041.00;;;26.86;87.04
26192;BME280;13935;55.672;37.764;2023-05-25T04:05:35;100035.63;;;26.88;85.85
26192;BME280;13935;55.672;37.764;2023-05-25T04:06:37;100034.75;;;27.70;82.96
26192;BME280;13935;55.672;37.764;2023-05-25T04:07:41;100028.38;;;28.26;79.39
26192;BME280;13935;55.672;37.764;2023-05-25T04:08:43;100037.19;;;28.03;75.34
26192;BME280;13935;55.672;37.764;2023-05-25T04:09:46;100032.47;;;28.19;73.03
26192;BME280;13935;55.672;37.764;2023-05-25T04:10:50;100034.09;;;27.81;75.97
26192;BME280;13935;55.672;37.764;2023-05-25T04:11:52;100035.16;;;27.63;77.14
26192;BME280;13935;55.672;37.764;2023-05-25T04:12:54;100030.16;;;27.58;76.37
26192;BME280;13935;55.672;37.764;2023-05-25T04:13:57;100033.72;;;27.53;77.13
26192;BME280;13935;55.672;37.764;2023-05-25T04:15:03;100033.94;;;27.50;76.79
26192;BME280;13935;55.672;37.764;2023-05-25T04:16:09;100036.09;;;28.00;75.86
26192;BME280;13935;55.672;37.764;2023-05-25T04:17:16;100034.28;;;27.97;73.50
26192;BME280;13935;55.672;37.764;2023-05-25T04:18:19;100025.19;;;28.44;71.71
26192;BME280;13935;55.672;37.764;2023-05-25T04:19:22;100030.13;;;29.52;67.55
26192;BME280;13935;55.672;37.764;2023-05-25T04:20:24;100027.41;;;29.85;66.83
26192;BME280;13935;55.672;37.764;2023-05-25T04:21:27;100034.06;;;30.45;62.35
26192;BME280;13935;55.672;37.764;2023-05-25T04:22:29;100031.69;;;30.38;59.17
26192;BME280;13935;55.672;37.764;2023-05-25T04:23:32;100032.00;;;30.62;59.29
26192;BME280;13935;55.672;37.764;2023-05-25T04:24:36;100034.88;;;30.84;55.76
26192;BME280;13935;55.672;37.764;2023-05-25T04:25:38;100030.97;;;30.65;55.67
26192;BME280;13935;55.672;37.764;2023-05-25T04:26:40;100035.34;;;31.10;55.41
26192;BME280;13935;55.672;37.764;2023-05-25T04:27:42;100036.13;;;30.29;57.11
26192;BME280;13935;55.672;37.764;2023-05-25T04:28:49;100036.13;;;30.39;56.87
26192;BME280;13935;55.672;37.764;2023-05-25T04:30:02;100030.72;;;29.67;59.31
26192;BME280;13935;55.672;37.764;2023-05-25T04:31:20;100035.53;;;28.41;65.12
26192;BME280;13935;55.672;37.764;2023-05-25T04:32:43;100025.78;;;27.38;70.74
26192;BME280;13935;55.672;37.764;2023-05-25T04:34:00;100029.59;;;27.35;74.01
26192;BME280;13935;55.672;37.764;2023-05-25T04:35:06;100033.13;;;26.32;79.42
26192;BME280;13935;55.672;37.764;2023-05-25T04:36:14;100036.59;;;25.61;88.84
26192;BME280;13935;55.672;37.764;2023-05-25T04:37:17;100032.44;;;25.24;91.63
26192;BME280;13935;55.672;37.764;2023-05-25T04:38:19;100032.97;;;24.81;96.83
26192;BME280;13935;55.672;37.764;2023-05-25T04:39:21;100035.66;;;24.44;100.00
26192;BME280;13935;55.672;37.764;2023-05-25T04:40:27;100040.31;;;24.64;100.00
26192;BME280;13935;55.672;37.764;2023-05-25T04:41:29;100036.00;;;24.19;100.00
26192;BME280;13935;55.672;37.764;2023-05-25T04:42:35;100037.25;;;24.27;100.00
26192;BME280;13935;55.672;37.764;2023-05-25T04:43:39;100035.47;;;24.47;100.00
26192;BME280;13935;55.672;37.764;2023-05-25T04:45:02;100037.44;;;23.96;100.00
26192;BME280;13935;55.672;37.764;2023-05-25T04:46:04;100028.81;;;23.82;100.00
26192;BME280;13935;55.672;37.764;2023-05-25T04:47:08;100038.38;;;23.49;100.00
26192;BME280;13935;55.672;37.764;2023-05-25T04:48:12;100029.41;;;23.68;100.00
26192;BME280;13935;55.672;37.764;2023-05-25T04:49:14;100030.19;;;23.33;100.00
26192;BME280;13935;55.672;37.764;2023-05-25T04:50:19;100030.53;;;23.44;100.00
26192;BME280;13935;55.672;37.764;2023-05-25T04:51:21;100027.72;;;23.44;100.00
26192;BME280;13935;55.672;37.764;2023-05-25T04:52:26;100025.97;;;23.55;100.00
26192;BME280;13935;55.672;37.764;2023-05-25T04:53:28;100025.97;;;23.37;100.00
26192;BME280;13935;55.672;37.764;2023-05-25T04:54:30;100028.97;;;23.43;100.00
26192;BME280;13935;55.672;37.764;2023-05-25T04:55:34;100028.13;;;23.24;100.00
26192;BME280;13935;55.672;37.764;2023-05-25T04:56:36;100032.06;;;23.45;100.00
26192;BME280;13935;55.672;37.764;2023-05-25T04:57:39;100024.38;;;23.18;100.00
26192;BME280;13935;55.672;37.764;2023-05-25T04:58:41;100037.88;;;23.41;100.00
26192;BME280;13935;55.672;37.764;2023-05-25T04:59:43;100029.09;;;23.30;100.00
26192;BME280;13935;55.672;37.764;2023-05-25T05:00:45;100029.72;;;23.25;100.00
26192;BME280;13935;55.672;37.764;2023-05-25T05:01:49;100028.59;;;23.14;100.00
26192;BME280;13935;55.672;37.764;2023-05-25T05:02:55;100024.53;;;23.51;100.00
26192;BME280;13935;55.672;37.764;2023-05-25T05:03:58;100033.19;;;23.38;100.00
26192;BME280;13935;55.672;37.764;2023-05-25T05:05:01;100031.56;;;23.02;100.00
26192;BME280;13935;55.672;37.764;2023-05-25T05:06:04;100027.47;;;23.11;100.00
26192;BME280;13935;55.672;37.764;2023-05-25T05:07:07;100028.94;;;23.25;100.00
26192;BME280;13935;55.672;37.764;2023-05-25T05:08:11;100028.16;;;23.33;100.00
26192;BME280;13935;55.672;37.764;2023-05-25T05:09:14;100026.22;;;23.12;100.00
26192;BME280;13935;55.672;37.764;2023-05-25T05:10:16;100021.91;;;22.90;100.00
26192;BME280;13935;55.672;37.764;2023-05-25T05:11:23;100028.03;;;22.89;100.00
26192;BME280;13935;55.672;37.764;2023-05-25T05:12:28;100029.41;;;22.75;100.00
26192;BME280;13935;55.672;37.764;2023-05-25T05:13:33;100039.22;;;22.62;100.00
26192;BME280;13935;55.672;37.764;2023-05-25T05:14:36;100034.66;;;22.64;100.00
26192;BME280;13935;55.672;37.764;2023-05-25T05:15:38;100030.19;;;22.45;100.00
26192;BME280;13935;55.672;37.764;2023-05-25T05:16:40;100036.16;;;22.47;100.00
26192;BME280;13935;55.672;37.764;2023-05-25T05:17:46;100028.69;;;22.53;100.00
26192;BME280;13935;55.672;37.764;2023-05-25T05:18:48;100032.38;;;22.41;100.00
26192;BME280;13935;55.672;37.764;2023-05-25T05:19:50;100032.13;;;22.27;100.00
26192;BME280;13935;55.672;37.764;2023-05-25T05:20:53;100031.91;;;22.22;100.00
26192;BME280;13935;55.672;37.764;2023-05-25T05:21:56;100034.09;;;22.39;100.00
26192;BME280;13935;55.672;37.764;2023-05-25T05:23:00;100029.69;;;22.38;100.00
26192;BME280;13935;55.672;37.764;2023-05-25T05:24:02;100028.59;;;22.35;100.00
26192;BME280;13935;55.672;37.764;2023-05-25T05:25:05;100027.97;;;22.10;100.00
26192;BME280;13935;55.672;37.764;2023-05-25T05:26:08;100024.91;;;22.26;100.00
26192;BME280;13935;55.672;37.764;2023-05-25T05:27:12;100031.75;;;22.16;100.00
26192;BME280;13935;55.672;37.764;2023-05-25T05:28:20;100033.53;;;22.01;100.00
26192;BME280;13935;55.672;37.764;2023-05-25T05:29:22;100032.06;;;21.75;100.00
26192;BME280;13935;55.672;37.764;2023-05-25T05:30:25;100032.75;;;21.79;100.00
26192;BME280;13935;55.672;37.764;2023-05-25T05:31:27;100034.91;;;21.75;100.00
26192;BME280;13935;55.672;37.764;2023-05-25T05:32:32;100031.91;;;21.70;100.00
26192;BME280;13935;55.672;37.764;2023-05-25T05:33:35;100032.16;;;21.84;100.00
26192;BME280;13935;55.672;37.764;2023-05-25T05:34:38;100038.81;;;21.99;100.00
26192;BME280;13935;55.672;37.764;2023-05-25T05:35:47;100031.34;;;21.84;100.00
26192;BME280;13935;55.672;37.764;2023-05-25T05:36:53;100039.56;;;21.91;100.00
26192;BME280;13935;55.672;37.764;2023-05-25T05:38:01;100037.59;;;22.00;100.00
26192;BME280;13935;55.672;37.764;2023-05-25T05:39:03;100031.22;;;22.09;100.00
26192;BME280;13935;55.672;37.764;2023-05-25T05:40:07;100029.56;;;22.20;100.00
26192;BME280;13935;55.672;37.764;2023-05-25T05:41:10;100035.16;;;22.11;100.00
26192;BME280;13935;55.672;37.764;2023-05-25T05:42:17;100036.06;;;22.08;100.00
26192;BME280;13935;55.672;37.764;2023-05-25T05:43:18;100043.22;;;22.00;100.00
26192;BME280;13935;55.672;37.764;2023-05-25T05:44:22;100030.97;;;21.94;100.00
26192;BME280;13935;55.672;37.764;2023-05-25T05:45:29;100038.81;;;21.99;100.00
26192;BME280;13935;55.672;37.764;2023-05-25T05:46:32;100030.44;;;22.08;100.00
26192;BME280;13935;55.672;37.764;2023-05-25T05:47:35;100036.69;;;22.03;100.00
26192;BME280;13935;55.672;37.764;2023-05-25T05:48:38;100029.50;;;22.11;100.00
26192;BME280;13935;55.672;37.764;2023-05-25T05:49:40;100029.38;;;21.93;100.00
26192;BME280;13935;55.672;37.764;2023-05-25T05:50:42;100031.47;;;22.02;100.00
26192;BME280;13935;55.672;37.764;2023-05-25T05:51:47;100032.41;;;22.20;100.00
26192;BME280;13935;55.672;37.764;2023-05-25T05:52:49;100038.56;;;22.06;100.00
26192;BME280;13935;55.672;37.764;2023-05-25T05:53:51;100032.03;;;22.09;100.00
26192;BME280;13935;55.672;37.764;2023-05-25T05:54:54;100032.94;;;22.06;100.00
26192;BME280;13935;55.672;37.764;2023-05-25T05:55:55;100033.88;;;22.03;100.00
26192;BME280;13935;55.672;37.764;2023-05-25T05:57:00;100034.75;;;22.00;100.00
26192;BME280;13935;55.672;37.764;2023-05-25T05:58:03;100029.81;;;22.04;100.00
26192;BME280;13935;55.672;37.764;2023-05-25T05:59:05;100035.00;;;22.15;100.00
26192;BME280;13935;55.672;37.764;2023-05-25T06:00:08;100035.38;;;21.95;100.00
26192;BME280;13935;55.672;37.764;2023-05-25T06:01:17;100030.59;;;21.83;100.00
26192;BME280;13935;55.672;37.764;2023-05-25T06:02:19;100029.00;;;21.82;100.00
26192;BME280;13935;55.672;37.764;2023-05-25T06:03:22;100030.91;;;21.64;100.00
26192;BME280;13935;55.672;37.764;2023-05-25T06:04:25;100031.34;;;21.62;100.00
26192;BME280;13935;55.672;37.764;2023-05-25T06:05:30;100029.78;;;21.61;100.00
26192;BME280;13935;55.672;37.764;2023-05-25T06:06:34;100028.66;;;21.80;100.00
26192;BME280;13935;55.672;37.764;2023-05-25T06:07:36;100032.94;;;21.85;100.00
26192;BME280;13935;55.672;37.764;2023-05-25T06:08:39;100033.75;;;21.85;100.00
26192;BME280;13935;55.672;37.764;2023-05-25T06:09:44;100022.97;;;21.71;100.00
26192;BME280;13935;55.672;37.764;2023-05-25T06:10:46;100032.88;;;21.76;100.00
26192;BME280;13935;55.672;37.764;2023-05-25T06:11:49;100041.22;;;21.79;100.00
26192;BME280;13935;55.672;37.764;2023-05-25T06:12:52;100034.25;;;21.71;100.00
26192;BME280;13935;55.672;37.764;2023-05-25T06:13:55;100031.50;;;21.80;100.00
26192;BME280;13935;55.672;37.764;2023-05-25T06:14:58;100042.03;;;21.67;100.00
26192;BME280;13935;55.672;37.764;2023-05-25T06:16:05;100030.38;;;21.56;100.00
26192;BME280;13935;55.672;37.764;2023-05-25T06:17:07;100030.06;;;21.55;100.00
26192;BME280;13935;55.672;37.764;2023-05-25T06:18:09;100024.63;;;21.48;100.00
26192;BME280;13935;55.672;37.764;2023-05-25T06:19:11;100028.00;;;21.43;100.00
26192;BME280;13935;55.672;37.764;2023-05-25T06:20:16;100029.06;;;21.36;100.00
26192;BME280;13935;55.672;37.764;2023-05-25T06:21:19;100037.63;;;21.33;100.00
26192;BME280;13935;55.672;37.764;2023-05-25T06:22:23;100032.25;;;21.26;100.00
26192;BME280;13935;55.672;37.764;2023-05-25T06:23:30;100035.47;;;21.37;100.00
26192;BME280;13935;55.672;37.764;2023-05-25T06:24:32;100032.81;;;21.21;100.00
26192;BME280;13935;55.672;37.764;2023-05-25T06:25:33;100032.03;;;21.20;100.00
26192;BME280;13935;55.672;37.764;2023-05-25T06:26:36;100033.22;;;21.32;100.00
26192;BME280;13935;55.672;37.764;2023-05-25T06:27:38;100033.22;;;21.32;100.00
26192;BME280;13935;55.672;37.764;2023-05-25T06:28:40;100034.88;;;21.20;100.00
26192;BME280;13935;55.672;37.764;2023-05-25T06:29:43;100030.34;;;21.23;100.00
26192;BME280;13935;55.672;37.764;2023-05-25T06:30:45;100039.78;;;21.29;100.00
26192;BME280;13935;55.672;37.764;2023-05-25T06:31:47;100038.44;;;21.21;100.00
26192;BME280;13935;55.672;37.764;2023-05-25T06:32:49;100039.34;;;21.18;100.00
26192;BME280;13935;55.672;37.764;2023-05-25T06:33:51;100042.19;;;21.05;100.00
26192;BME280;13935;55.672;37.764;2023-05-25T06:34:54;100052.34;;;21.03;100.00
26192;BME280;13935;55.672;37.764;2023-05-25T06:35:57;100050.75;;;21.02;100.00
26192;BME280;13935;55.672;37.764;2023-05-25T06:37:01;100054.50;;;20.99;100.00
26192;BME280;13935;55.672;37.764;2023-05-25T06:38:05;100054.50;;;20.99;100.00
26192;BME280;13935;55.672;37.764;2023-05-25T06:39:07;100059.19;;;21.02;100.00
26192;BME280;13935;55.672;37.764;2023-05-25T06:40:09;100054.13;;;21.09;100.00
26192;BME280;13935;55.672;37.764;2023-05-25T06:41:12;100061.56;;;21.16;100.00
26192;BME280;13935;55.672;37.764;2023-05-25T06:42:17;100063.22;;;21.26;100.00
26192;BME280;13935;55.672;37.764;2023-05-25T06:43:26;100057.25;;;21.24;100.00
26192;BME280;13935;55.672;37.764;2023-05-25T06:44:49;100057.09;;;21.40;100.00
26192;BME280;13935;55.672;37.764;2023-05-25T06:45:51;100057.00;;;21.31;100.00
26192;BME280;13935;55.672;37.764;2023-05-25T06:46:53;100058.09;;;21.46;100.00
26192;BME280;13935;55.672;37.764;2023-05-25T06:47:55;100060.66;;;21.52;100.00
26192;BME280;13935;55.672;37.764;2023-05-25T06:48:59;100062.28;;;21.54;100.00
26192;BME280;13935;55.672;37.764;2023-05-25T06:50:02;100060.44;;;21.59;100.00
26192;BME280;13935;55.672;37.764;2023-05-25T06:51:04;100063.03;;;21.54;100.00
26192;BME280;13935;55.672;37.764;2023-05-25T06:52:06;100058.31;;;21.51;100.00
26192;BME280;13935;55.672;37.764;2023-05-25T06:53:09;100068.13;;;21.47;100.00
26192;BME280;13935;55.672;37.764;2023-05-25T06:54:12;100067.03;;;21.32;100.00
26192;BME280;13935;55.672;37.764;2023-05-25T06:55:15;100067.38;;;21.34;100.00
26192;BME280;13935;55.672;37.764;2023-05-25T06:56:17;100071.00;;;21.22;100.00
26192;BME280;13935;55.672;37.764;2023-05-25T06:57:21;100062.78;;;21.15;100.00
26192;BME280;13935;55.672;37.764;2023-05-25T06:58:23;100068.75;;;21.17;100.00
26192;BME280;13935;55.672;37.764;2023-05-25T06:59:25;100079.69;;;21.15;100.00
26192;BME280;13935;55.672;37.764;2023-05-25T07:00:27;100071.47;;;21.20;100.00
26192;BME280;13935;55.672;37.764;2023-05-25T07:01:28;100077.91;;;20.96;100.00
26192;BME280;13935;55.672;37.764;2023-05-25T07:02:30;100075.31;;;20.89;100.00
26192;BME280;13935;55.672;37.764;2023-05-25T07:03:33;100077.47;;;20.85;100.00
26192;BME280;13935;55.672;37.764;2023-05-25T07:04:34;100074.31;;;20.83;100.00
26192;BME280;13935;55.672;37.764;2023-05-25T07:05:36;100073.63;;;20.79;100.00
26192;BME280;13935;55.672;37.764;2023-05-25T07:06:38;100082.50;;;20.78;100.00
26192;BME280;13935;55.672;37.764;2023-05-25T07:07:40;100082.03;;;20.67;100.00
26192;BME280;13935;55.672;37.764;2023-05-25T07:08:43;100079.16;;;20.83;100.00
26192;BME280;13935;55.672;37.764;2023-05-25T07:09:45;100078.75;;;20.68;100.00
26192;BME280;13935;55.672;37.764;2023-05-25T07:10:48;100078.56;;;20.75;100.00
26192;BME280;13935;55.672;37.764;2023-05-25T07:11:51;100083.97;;;20.82;100.00
26192;BME280;13935;55.672;37.764;2023-05-25T07:12:53;100070.81;;;20.91;100.00
26192;BME280;13935;55.672;37.764;2023-05-25T07:13:55;100073.63;;;20.91;100.00
26192;BME280;13935;55.672;37.764;2023-05-25T07:14:58;100076.44;;;20.91;100.00
26192;BME280;13935;55.672;37.764;2023-05-25T07:16:00;100079.47;;;20.97;100.00
26192;BME280;13935;55.672;37.764;2023-05-25T07:17:02;100073.03;;;20.96;100.00
26192;BME280;13935;55.672;37.764;2023-05-25T07:18:04;100077.91;;;20.96;100.00
26192;BME280;13935;55.672;37.764;2023-05-25T07:19:07;100078.94;;;20.89;100.00
26192;BME280;13935;55.672;37.764;2023-05-25T07:20:09;100074.97;;;20.87;100.00
26192;BME280;13935;55.672;37.764;2023-05-25T07:21:13;100081.16;;;20.82;100.00
26192;BME280;13935;55.672;37.764;2023-05-25T07:22:15;100074.31;;;20.83;100.00
26192;BME280;13935;55.672;37.764;2023-05-25T07:23:20;100082.88;;;20.92;100.00
26192;BME280;13935;55.672;37.764;2023-05-25T07:24:22;100079.16;;;20.83;100.00
26192;BME280;13935;55.672;37.764;2023-05-25T07:25:24;100076.44;;;20.79;100.00
26192;BME280;13935;55.672;37.764;2023-05-25T07:26:25;100072.41;;;20.80;100.00
26192;BME280;13935;55.672;37.764;2023-05-25T07:27:29;100083.97;;;20.82;100.00
26192;BME280;13935;55.672;37.764;2023-05-25T07:28:33;100082.75;;;20.83;100.00
26192;BME280;13935;55.672;37.764;2023-05-25T07:29:35;100086.47;;;20.80;100.00
26192;BME280;13935;55.672;37.764;2023-05-25T07:30:37;100079.44;;;20.72;100.00
26192;BME280;13935;55.672;37.764;2023-05-25T07:31:38;100081.16;;;20.70;100.00
26192;BME280;13935;55.672;37.764;2023-05-25T07:32:41;100078.41;;;20.41;100.00